Time;durP1;ratioP1;P1;durP2;ratioP2;P2;SDS_P1;SDS_P2;PMS_P1;PMS_P2;Temp;Humidity;BMP_temperature;BMP_pressure;BME280_temperature;BME280_humidity;BME280_pressure;Samples;Min_cycle;Max_cycle;Signal;HPM_P1;HPM_P2
2022/09/17 00:00:36;;;;;;;;;;;;;;;23.55;62.26;98856.59;5058089;28;19948;-69
2022/09/17 00:03:01;;;;;;;;;;;;;;;23.36;63.09;98863.53;5059721;28;19951;-67
2022/09/17 00:05:26;;;;;;;;;;;;;;;23.33;63.50;98855.97;5057108;28;19917;-68
2022/09/17 00:07:52;;;;;;;;;;;;;;;23.41;63.60;98848.16;5059163;28;19920;-69
2022/09/17 00:10:18;;;;;;;;;;;;;;;23.46;63.16;98853.56;5057676;28;20163;-69
2022/09/17 00:12:43;;;;;;;;;;;;;;;23.28;63.84;98858.66;5059348;28;19938;-69
2022/09/17 00:15:09;;;;;;;;;;;;;;;23.23;65.30;98857.56;5059115;28;19946;-69
2022/09/17 00:17:34;;;;;;;;;;;;;;;23.19;64.69;98859.19;5061674;28;19913;-69
2022/09/17 00:19:59;;;;;;;;;;;;;;;23.21;65.72;98851.63;5057254;28;19924;-69
2022/09/17 00:22:25;;;;;;;;;;;;;;;23.31;64.81;98850.03;5058711;28;19936;-69
2022/09/17 00:24:50;;;;;;;;;;;;;;;23.38;65.09;98837.06;5058000;28;19924;-69
2022/09/17 00:27:15;;;;;;;;;;;;;;;23.45;64.83;98843.03;5058432;28;20253;-69
2022/09/17 00:29:40;;;;;;;;;;;;;;;23.46;64.85;98834.66;5057921;28;20087;-69
2022/09/17 00:32:06;;;;;;;;;;;;;;;23.46;63.99;98825.75;5060875;28;20252;-68
2022/09/17 00:34:31;;;;;;;;;;;;;;;23.28;64.43;98840.56;5040040;28;19920;-69
2022/09/17 00:36:56;;;;;;;;;;;;;;;23.37;64.22;98844.38;5057569;28;19912;-69
2022/09/17 00:39:22;;;;;;;;;;;;;;;23.47;63.56;98839.00;5058554;28;20426;-69
2022/09/17 00:41:47;;;;;;;;;;;;;;;23.39;63.75;98836.81;5035322;28;20123;-69
2022/09/17 00:44:31;;;;;;;;;;;;;;;23.33;64.92;98839.78;5037958;28;19917;-69
2022/09/17 00:46:57;;;;;;;;;;;;;;;23.28;66.06;98840.56;5036090;28;20265;-69
2022/09/17 00:49:27;;;;;;;;;;;;;;;23.23;65.37;98843.25;5037384;28;20198;-69
2022/09/17 00:52:03;;;;;;;;;;;;;;;23.29;64.64;98844.91;5034906;28;19913;-68
2022/09/17 00:54:28;;;;;;;;;;;;;;;23.33;64.86;98850.56;5038188;28;19952;-69
2022/09/17 00:56:55;;;;;;;;;;;;;;;23.29;63.83;98850.28;5036156;28;19922;-69
2022/09/17 00:59:21;;;;;;;;;;;;;;;23.16;63.55;98851.59;5037068;28;19917;-69
2022/09/17 01:01:47;;;;;;;;;;;;;;;22.88;66.37;98842.03;5038044;28;20208;-69
2022/09/17 01:04:19;;;;;;;;;;;;;;;22.81;65.37;98846.06;5036842;28;19952;-69
2022/09/17 01:06:57;;;;;;;;;;;;;;;22.56;66.45;98834.03;5035008;28;19950;-69
2022/09/17 01:09:40;;;;;;;;;;;;;;;22.52;67.20;98830.22;5035464;28;19948;-69
2022/09/17 01:12:06;;;;;;;;;;;;;;;22.27;67.77;98811.22;5046365;28;19917;-69
2022/09/17 01:14:34;;;;;;;;;;;;;;;22.60;67.73;98845.13;5051882;28;19932;-69
2022/09/17 01:16:59;;;;;;;;;;;;;;;22.70;67.29;98847.03;5037215;28;19928;-69
2022/09/17 01:19:44;;;;;;;;;;;;;;;22.65;66.90;98842.44;5037109;28;19926;-69
2022/09/17 01:22:18;;;;;;;;;;;;;;;22.74;66.42;98835.47;5033920;28;20214;-69
2022/09/17 01:24:48;;;;;;;;;;;;;;;22.80;65.84;98834.44;5037041;28;19931;-69
2022/09/17 01:27:21;;;;;;;;;;;;;;;22.69;65.92;98838.13;5037056;28;20106;-69
2022/09/17 01:29:58;;;;;;;;;;;;;;;22.55;66.54;98842.38;5033070;28;19925;-69
2022/09/17 01:32:44;;;;;;;;;;;;;;;22.62;66.32;98845.66;5037839;28;19913;-69
2022/09/17 01:35:28;;;;;;;;;;;;;;;22.47;66.67;98843.69;5037013;28;19983;-69
2022/09/17 01:38:03;;;;;;;;;;;;;;;22.61;66.76;98844.03;5041652;28;19909;-69
2022/09/17 01:40:47;;;;;;;;;;;;;;;22.63;66.64;98848.09;5040982;28;19917;-68
2022/09/17 01:43:47;;;;;;;;;;;;;;;22.58;66.50;98858.06;5053694;28;19913;-68
2022/09/17 01:46:16;;;;;;;;;;;;;;;22.60;66.69;98861.28;4964160;28;20001;-69
2022/09/17 01:48:44;;;;;;;;;;;;;;;22.56;66.69;98842.13;5036793;28;19920;-69
2022/09/17 01:51:11;;;;;;;;;;;;;;;22.56;66.82;98844.81;5057456;28;20140;-69
2022/09/17 01:53:58;;;;;;;;;;;;;;;22.59;67.23;98835.38;5055347;28;19921;-69
2022/09/17 01:56:37;;;;;;;;;;;;;;;22.59;67.07;98841.59;5061152;28;19917;-69
2022/09/17 01:59:12;;;;;;;;;;;;;;;22.59;66.91;98840.78;5060876;28;19920;-69
2022/09/17 02:01:39;;;;;;;;;;;;;;;22.55;66.87;98845.09;5057278;28;19912;-69
2022/09/17 02:04:12;;;;;;;;;;;;;;;22.55;67.19;98843.19;5055906;28;20017;-69
2022/09/17 02:06:39;;;;;;;;;;;;;;;22.67;66.60;98834.09;5056336;28;19939;-69
2022/09/17 02:09:13;;;;;;;;;;;;;;;22.57;66.96;98827.56;5056599;28;20083;-69
2022/09/17 02:11:41;;;;;;;;;;;;;;;22.60;66.88;98821.63;5061524;28;19920;-69
2022/09/17 02:14:12;;;;;;;;;;;;;;;22.61;66.40;98822.44;5059348;28;19948;-68
2022/09/17 02:16:42;;;;;;;;;;;;;;;22.68;66.82;98824.91;5055315;28;19920;-68
2022/09/17 02:19:15;;;;;;;;;;;;;;;22.67;65.62;98817.88;5053414;28;20018;-69
2022/09/17 02:21:49;;;;;;;;;;;;;;;22.61;66.79;98825.16;5056938;28;19938;-69
2022/09/17 02:24:18;;;;;;;;;;;;;;;22.54;66.42;98813.78;5056590;28;19931;-69
2022/09/17 02:27:09;;;;;;;;;;;;;;;22.56;65.08;98808.94;5055604;28;19912;-69
2022/09/17 02:29:36;;;;;;;;;;;;;;;22.52;64.58;98802.44;5055043;28;20261;-69
2022/09/17 02:32:02;;;;;;;;;;;;;;;22.20;66.48;98806.03;5059697;28;20218;-69
2022/09/17 02:34:28;;;;;;;;;;;;;;;22.13;67.17;98808.16;5060768;28;19929;-68
2022/09/17 02:36:53;;;;;;;;;;;;;;;22.09;67.51;98811.63;5064653;28;20142;-69
2022/09/17 02:39:19;;;;;;;;;;;;;;;21.97;66.42;98803.69;5062464;28;20001;-68
2022/09/17 02:41:59;;;;;;;;;;;;;;;21.81;67.83;98815.41;5061930;28;20001;-69
2022/09/17 02:44:25;;;;;;;;;;;;;;;21.97;67.80;98822.56;5064261;28;19963;-69
2022/09/17 02:47:08;;;;;;;;;;;;;;;21.86;67.26;98805.50;5060235;28;20202;-69
2022/09/17 02:49:42;;;;;;;;;;;;;;;21.69;68.02;98788.63;5059710;28;19960;-69
2022/09/17 02:52:26;;;;;;;;;;;;;;;21.45;68.29;98780.09;5059135;28;20256;-69
2022/09/17 02:54:51;;;;;;;;;;;;;;;21.34;70.03;98783.75;5059539;28;20210;-69
2022/09/17 02:57:29;;;;;;;;;;;;;;;21.40;70.49;98781.94;5060083;28;19950;-68
2022/09/17 02:59:57;;;;;;;;;;;;;;;21.45;69.58;98776.59;5056474;28;19973;-69
2022/09/17 03:02:29;;;;;;;;;;;;;;;21.41;70.60;98778.16;5059938;28;20043;-69
2022/09/17 03:04:55;;;;;;;;;;;;;;;21.55;69.97;98773.97;5057993;28;19916;-69
2022/09/17 03:07:21;;;;;;;;;;;;;;;21.66;69.35;98770.28;5059617;28;20173;-69
2022/09/17 03:09:47;;;;;;;;;;;;;;;21.62;68.86;98772.69;5060338;28;19916;-68
2022/09/17 03:12:12;;;;;;;;;;;;;;;21.64;68.44;98767.03;5063952;28;20466;-68
2022/09/17 03:14:38;;;;;;;;;;;;;;;21.61;68.78;98767.56;5060950;28;19962;-68
2022/09/17 03:17:03;;;;;;;;;;;;;;;21.56;67.75;98754.88;5056918;28;19921;-68
2022/09/17 03:19:28;;;;;;;;;;;;;;;21.34;68.78;98752.25;5058579;28;19924;-68
2022/09/17 03:21:54;;;;;;;;;;;;;;;21.16;70.18;98755.28;5063618;28;19971;-68
2022/09/17 03:24:19;;;;;;;;;;;;;;;21.17;70.33;98756.91;5062592;28;19923;-68
2022/09/17 03:26:46;;;;;;;;;;;;;;;20.94;69.75;98770.66;5063121;28;20186;-68
2022/09/17 03:29:11;;;;;;;;;;;;;;;20.78;70.04;98761.59;5063038;28;19916;-68
2022/09/17 03:31:37;;;;;;;;;;;;;;;20.87;71.63;98764.69;5059042;28;19921;-68
2022/09/17 03:34:02;;;;;;;;;;;;;;;20.56;73.30;98761.59;5061158;28;19940;-68
2022/09/17 03:36:27;;;;;;;;;;;;;;;20.88;71.54;98759.03;5063449;28;19912;-69
2022/09/17 03:38:56;;;;;;;;;;;;;;;20.84;70.69;98730.19;5060592;28;19917;-68
2022/09/17 03:41:21;;;;;;;;;;;;;;;20.69;71.86;98725.44;5057504;28;19976;-68
2022/09/17 03:43:47;;;;;;;;;;;;;;;20.55;72.31;98735.78;5058891;28;19912;-68
2022/09/17 03:46:12;;;;;;;;;;;;;;;20.47;73.82;98728.16;5059141;28;19979;-68
2022/09/17 03:48:38;;;;;;;;;;;;;;;20.57;73.28;98714.00;5058446;28;19913;-68
2022/09/17 03:51:04;;;;;;;;;;;;;;;20.66;72.66;98728.63;5059533;28;20265;-68
2022/09/17 03:53:29;;;;;;;;;;;;;;;20.76;72.79;98730.63;5057999;28;19920;-68
2022/09/17 03:55:56;;;;;;;;;;;;;;;20.66;72.54;98680.22;5058722;28;19916;-68
2022/09/17 03:58:22;;;;;;;;;;;;;;;20.95;71.38;98718.47;5060771;28;19913;-68
2022/09/17 04:00:52;;;;;;;;;;;;;;;20.94;71.67;98720.34;5061550;28;19924;-68
2022/09/17 04:03:17;;;;;;;;;;;;;;;21.03;71.74;98718.03;5063592;28;19945;-68
2022/09/17 04:05:42;;;;;;;;;;;;;;;21.12;71.11;98713.78;5061542;28;19926;-68
2022/09/17 04:08:07;;;;;;;;;;;;;;;21.17;71.07;98715.72;5058241;28;20087;-68
2022/09/17 04:10:33;;;;;;;;;;;;;;;21.26;71.01;98708.84;5058531;28;19956;-68
2022/09/17 04:12:58;;;;;;;;;;;;;;;21.26;68.61;98701.56;5039649;28;19912;-68
2022/09/17 04:15:24;;;;;;;;;;;;;;;21.17;70.16;98713.84;5041928;28;19917;-68
2022/09/17 04:17:49;;;;;;;;;;;;;;;21.17;70.64;98723.81;5057315;28;20098;-68
2022/09/17 04:20:14;;;;;;;;;;;;;;;20.98;71.87;98737.63;5039775;28;19970;-68
2022/09/17 04:22:40;;;;;;;;;;;;;;;21.00;72.09;98745.44;5058917;28;19920;-69
2022/09/17 04:25:05;;;;;;;;;;;;;;;21.11;71.29;98730.19;5057296;28;19935;-68
2022/09/17 04:27:31;;;;;;;;;;;;;;;21.19;71.11;98722.47;5057818;28;19921;-68
2022/09/17 04:29:56;;;;;;;;;;;;;;;21.34;70.58;98719.94;5056578;28;19920;-68
2022/09/17 04:32:22;;;;;;;;;;;;;;;21.52;69.51;98729.50;5058949;28;20194;-68
2022/09/17 04:34:47;;;;;;;;;;;;;;;21.44;69.67;98723.78;5038871;28;19925;-68
2022/09/17 04:37:12;;;;;;;;;;;;;;;21.54;69.38;98710.41;5057518;28;19908;-68
2022/09/17 04:39:38;;;;;;;;;;;;;;;21.60;69.12;98702.09;5058118;28;19983;-68
2022/09/17 04:42:03;;;;;;;;;;;;;;;21.45;69.59;98696.59;5056779;28;19938;-68
2022/09/17 04:44:28;;;;;;;;;;;;;;;21.12;71.33;98694.94;5057790;28;19975;-68
2022/09/17 04:46:54;;;;;;;;;;;;;;;20.85;72.89;98694.16;5061828;28;19913;-68
2022/09/17 04:49:19;;;;;;;;;;;;;;;20.94;72.86;98692.63;5061494;28;20264;-68
2022/09/17 04:51:44;;;;;;;;;;;;;;;20.91;72.77;98702.03;5055897;28;19929;-68
2022/09/17 04:54:10;;;;;;;;;;;;;;;20.93;73.29;98707.16;5057081;28;19916;-68
2022/09/17 04:56:35;;;;;;;;;;;;;;;20.81;74.36;98715.38;5058169;28;19996;-68
2022/09/17 04:59:00;;;;;;;;;;;;;;;21.00;73.27;98722.03;5057501;28;20217;-69
2022/09/17 05:01:25;;;;;;;;;;;;;;;20.99;74.09;98730.34;5058431;28;19912;-68
2022/09/17 05:03:51;;;;;;;;;;;;;;;20.87;73.92;98732.38;5039001;28;19909;-69
2022/09/17 05:06:16;;;;;;;;;;;;;;;21.07;74.56;98731.78;5058246;28;19919;-68
2022/09/17 05:08:41;;;;;;;;;;;;;;;21.12;73.45;98746.09;5056248;28;20015;-68
2022/09/17 05:11:07;;;;;;;;;;;;;;;21.01;72.94;98752.44;5056610;28;19916;-68
2022/09/17 05:13:32;;;;;;;;;;;;;;;20.99;73.03;98747.31;5060233;28;19955;-69
2022/09/17 05:15:57;;;;;;;;;;;;;;;21.25;72.12;98734.13;5058687;28;20140;-68
2022/09/17 05:18:22;;;;;;;;;;;;;;;21.60;69.86;98729.03;5058356;28;19921;-69
2022/09/17 05:20:48;;;;;;;;;;;;;;;21.69;69.59;98713.19;5056616;28;20454;-69
2022/09/17 05:23:13;;;;;;;;;;;;;;;21.86;69.09;98716.59;5056301;28;19984;-68
2022/09/17 05:25:38;;;;;;;;;;;;;;;22.29;67.66;98715.50;5055947;28;19925;-68
2022/09/17 05:28:04;;;;;;;;;;;;;;;22.56;67.16;98725.31;5056547;28;19917;-68
2022/09/17 05:30:29;;;;;;;;;;;;;;;22.51;66.89;98734.19;5056694;28;20118;-68
2022/09/17 05:33:01;;;;;;;;;;;;;;;22.75;66.03;98744.53;5056066;28;19927;-68
2022/09/17 05:35:27;;;;;;;;;;;;;;;23.16;64.52;98740.88;5038363;28;19917;-69
2022/09/17 05:37:55;;;;;;;;;;;;;;;23.56;62.69;98733.91;5057437;28;19921;-68
2022/09/17 05:40:20;;;;;;;;;;;;;;;23.84;61.72;98737.94;5058779;28;19916;-69
2022/09/17 05:42:46;;;;;;;;;;;;;;;24.09;60.80;98735.22;5043366;28;19916;-68
2022/09/17 05:45:11;;;;;;;;;;;;;;;24.32;59.68;98741.13;5057782;28;19916;-68
2022/09/17 05:47:36;;;;;;;;;;;;;;;24.13;60.17;98749.81;5056545;28;19971;-68
2022/09/17 05:50:02;;;;;;;;;;;;;;;24.09;61.17;98745.22;5056379;28;19916;-68
2022/09/17 05:52:28;;;;;;;;;;;;;;;24.18;60.87;98765.22;5058009;28;19927;-69
2022/09/17 05:54:54;;;;;;;;;;;;;;;24.12;60.85;98771.72;5058991;28;19967;-69
2022/09/17 05:57:19;;;;;;;;;;;;;;;24.06;61.32;98767.41;5061445;28;19912;-68
2022/09/17 05:59:44;;;;;;;;;;;;;;;24.00;61.50;98771.19;5057789;28;19917;-68
2022/09/17 06:02:12;;;;;;;;;;;;;;;23.89;62.27;98767.66;5056238;28;19928;-68
2022/09/17 06:04:37;;;;;;;;;;;;;;;23.98;62.27;98773.38;5058778;28;20094;-68
2022/09/17 06:07:03;;;;;;;;;;;;;;;24.11;61.62;98770.09;5060893;28;19919;-68
2022/09/17 06:09:28;;;;;;;;;;;;;;;24.35;60.81;98767.63;5059310;28;19920;-68
2022/09/17 06:11:54;;;;;;;;;;;;;;;24.60;59.33;98789.19;5060351;28;20122;-69
2022/09/17 06:14:19;;;;;;;;;;;;;;;24.69;59.15;98790.25;5060672;28;19924;-68
2022/09/17 06:16:44;;;;;;;;;;;;;;;24.79;59.02;98792.91;5059937;28;19980;-68
2022/09/17 06:19:09;;;;;;;;;;;;;;;25.04;58.52;98796.63;5061106;28;19948;-68
2022/09/17 06:21:35;;;;;;;;;;;;;;;25.35;57.78;98803.47;5059984;28;19978;-68
2022/09/17 06:24:00;;;;;;;;;;;;;;;25.42;56.98;98797.75;5058684;28;19950;-69
2022/09/17 06:26:25;;;;;;;;;;;;;;;25.68;55.46;98784.84;5059398;28;19920;-68
2022/09/17 06:28:50;;;;;;;;;;;;;;;25.63;56.08;98779.44;5060261;28;19913;-69
2022/09/17 06:31:16;;;;;;;;;;;;;;;25.55;56.61;98788.16;5059908;28;19920;-68
2022/09/17 06:33:41;;;;;;;;;;;;;;;25.24;56.45;98801.13;5058802;28;19913;-68
2022/09/17 06:36:08;;;;;;;;;;;;;;;25.14;57.22;98805.50;5060852;28;20099;-69
2022/09/17 06:38:34;;;;;;;;;;;;;;;25.06;57.11;98808.81;5042003;28;20166;-69
2022/09/17 06:40:59;;;;;;;;;;;;;;;24.93;57.42;98816.66;5058905;28;19979;-68
2022/09/17 06:43:25;;;;;;;;;;;;;;;24.71;58.19;98817.03;5061016;28;20264;-69
2022/09/17 06:45:52;;;;;;;;;;;;;;;24.63;59.02;98815.69;5060865;28;19924;-69
2022/09/17 06:48:18;;;;;;;;;;;;;;;24.41;58.83;98828.75;5066058;28;19931;-68
2022/09/17 06:50:43;;;;;;;;;;;;;;;24.37;59.18;98836.63;5065559;28;19920;-69
2022/09/17 06:53:08;;;;;;;;;;;;;;;24.43;59.70;98824.69;5065033;28;19962;-68
2022/09/17 06:55:34;;;;;;;;;;;;;;;24.33;59.64;98789.56;5065889;28;19916;-69
2022/09/17 06:57:59;;;;;;;;;;;;;;;24.76;59.03;98812.41;5065489;28;19916;-68
2022/09/17 07:00:25;;;;;;;;;;;;;;;24.72;59.60;98811.34;5065156;28;19967;-68
2022/09/17 07:02:55;;;;;;;;;;;;;;;25.06;58.35;98814.22;5065489;28;19915;-69
2022/09/17 07:05:20;;;;;;;;;;;;;;;25.10;58.06;98803.63;5065472;28;19923;-69
2022/09/17 07:07:45;;;;;;;;;;;;;;;25.29;57.75;98807.31;5064869;28;20107;-69
2022/09/17 07:10:11;;;;;;;;;;;;;;;25.56;56.40;98833.16;5064986;28;19916;-69
2022/09/17 07:12:39;;;;;;;;;;;;;;;25.50;56.33;98837.78;5065327;28;19908;-69
2022/09/17 07:15:04;;;;;;;;;;;;;;;25.74;55.41;98811.63;5064398;28;19948;-69
2022/09/17 07:17:29;;;;;;;;;;;;;;;25.84;55.20;98804.50;5065304;28;19947;-69
2022/09/17 07:19:54;;;;;;;;;;;;;;;25.87;54.18;98812.06;5065195;28;19912;-69
2022/09/17 07:22:20;;;;;;;;;;;;;;;25.58;55.21;98801.16;5064484;28;19909;-68
2022/09/17 07:24:45;;;;;;;;;;;;;;;25.66;55.30;98792.44;5064407;28;20158;-68
2022/09/17 07:27:10;;;;;;;;;;;;;;;25.80;55.42;98779.84;5065006;28;19909;-68
2022/09/17 07:29:36;;;;;;;;;;;;;;;25.82;53.58;98776.84;5064794;28;19924;-69
2022/09/17 07:32:01;;;;;;;;;;;;;;;25.93;53.14;98779.19;5064959;28;19909;-68
2022/09/17 07:34:27;;;;;;;;;;;;;;;25.83;54.29;98789.31;5064902;28;19912;-69
2022/09/17 07:36:53;;;;;;;;;;;;;;;25.78;53.98;98782.84;5027768;28;19909;-69
2022/09/17 07:39:18;;;;;;;;;;;;;;;25.92;54.05;98774.03;5055519;28;19978;-69
2022/09/17 07:41:43;;;;;;;;;;;;;;;25.75;54.24;98775.28;5064499;28;20027;-69
2022/09/17 07:44:09;;;;;;;;;;;;;;;25.90;54.31;98766.19;5064609;28;19930;-69
2022/09/17 07:46:34;;;;;;;;;;;;;;;25.95;53.72;98768.84;5064342;28;19917;-69
2022/09/17 07:49:00;;;;;;;;;;;;;;;26.05;53.40;98770.69;5064615;28;19940;-69
2022/09/17 07:51:28;;;;;;;;;;;;;;;26.15;52.54;98751.59;5064852;28;19909;-69
2022/09/17 07:53:55;;;;;;;;;;;;;;;26.17;53.12;98754.03;5063933;28;20206;-68
2022/09/17 07:56:21;;;;;;;;;;;;;;;26.20;53.02;98767.00;5064241;28;19974;-69
2022/09/17 07:58:46;;;;;;;;;;;;;;;26.09;52.60;98758.16;5064564;28;20113;-69
2022/09/17 08:01:14;;;;;;;;;;;;;;;25.78;53.74;98757.63;5063849;28;20461;-69
2022/09/17 08:03:40;;;;;;;;;;;;;;;26.00;53.35;98755.25;5064479;28;19965;-69
2022/09/17 08:06:06;;;;;;;;;;;;;;;25.95;52.99;98760.72;5064515;28;20206;-69
2022/09/17 08:08:32;;;;;;;;;;;;;;;26.07;52.76;98763.06;5063889;28;19948;-69
2022/09/17 08:10:59;;;;;;;;;;;;;;;26.23;53.03;98771.88;5063894;28;19917;-68
2022/09/17 08:13:24;;;;;;;;;;;;;;;26.16;53.71;98776.81;5064202;28;19951;-69
2022/09/17 08:15:49;;;;;;;;;;;;;;;26.14;53.62;98787.97;5064059;28;20145;-69
2022/09/17 08:18:15;;;;;;;;;;;;;;;26.01;52.98;98785.91;5064112;28;19940;-68
2022/09/17 08:20:41;;;;;;;;;;;;;;;26.47;52.80;98778.13;5063875;28;20030;-69
2022/09/17 08:23:06;;;;;;;;;;;;;;;26.98;50.34;98777.53;5063499;28;19912;-69
2022/09/17 08:25:31;;;;;;;;;;;;;;;27.26;48.80;98762.19;5063508;28;19959;-69
2022/09/17 08:27:57;;;;;;;;;;;;;;;27.65;48.55;98751.81;5063681;28;20338;-69
2022/09/17 08:30:22;;;;;;;;;;;;;;;27.70;48.01;98750.91;5063278;28;20031;-69
2022/09/17 08:32:47;;;;;;;;;;;;;;;27.64;49.30;98752.09;5036509;28;19912;-69
2022/09/17 08:35:15;;;;;;;;;;;;;;;27.86;48.36;98746.00;5059089;28;19913;-69
2022/09/17 08:37:41;;;;;;;;;;;;;;;28.15;48.30;98748.50;5063261;28;19913;-69
2022/09/17 08:40:09;;;;;;;;;;;;;;;28.02;47.18;98751.97;5031799;28;19967;-69
2022/09/17 08:42:34;;;;;;;;;;;;;;;28.15;47.29;98749.31;5049901;28;19980;-69
2022/09/17 08:45:02;;;;;;;;;;;;;;;28.05;46.67;98754.09;5062991;28;19917;-69
2022/09/17 08:47:30;;;;;;;;;;;;;;;27.94;47.03;98753.47;5063514;28;19909;-69
2022/09/17 08:50:02;;;;;;;;;;;;;;;28.18;45.87;98743.25;5063479;28;20206;-69
2022/09/17 08:52:46;;;;;;;;;;;;;;;28.40;46.38;98739.88;5062583;28;19923;-69
2022/09/17 08:55:28;;;;;;;;;;;;;;;28.34;46.51;98741.06;5051145;28;19963;-69
2022/09/17 08:58:05;;;;;;;;;;;;;;;28.32;44.89;98748.75;5063379;28;19908;-70
2022/09/17 09:00:38;;;;;;;;;;;;;;;28.47;44.94;98734.81;5030442;28;19925;-69
2022/09/17 09:03:22;;;;;;;;;;;;;;;28.45;44.29;98739.75;5063584;28;19909;-69
2022/09/17 09:05:51;;;;;;;;;;;;;;;28.54;44.57;98732.50;5063388;28;20186;-69
2022/09/17 09:08:35;;;;;;;;;;;;;;;28.68;45.30;98718.84;5062669;28;19915;-68
2022/09/17 09:11:02;;;;;;;;;;;;;;;28.62;45.04;98701.00;5062805;28;19987;-69
2022/09/17 09:13:32;;;;;;;;;;;;;;;28.85;44.25;98691.81;5063176;28;19916;-69
2022/09/17 09:16:16;;;;;;;;;;;;;;;28.96;44.65;98681.47;5062706;28;19935;-69
2022/09/17 09:18:42;;;;;;;;;;;;;;;29.00;44.28;98687.09;5063088;28;20197;-69
2022/09/17 09:21:22;;;;;;;;;;;;;;;29.33;42.87;98663.97;5062688;28;19923;-69
2022/09/17 09:23:50;;;;;;;;;;;;;;;29.45;42.93;98660.69;5062729;28;19916;-69
2022/09/17 09:26:17;;;;;;;;;;;;;;;29.32;42.84;98651.44;5062559;28;19916;-69
2022/09/17 09:29:01;;;;;;;;;;;;;;;29.53;42.28;98649.84;5062443;28;20059;-69
2022/09/17 09:31:26;;;;;;;;;;;;;;;29.57;40.50;98639.09;5062651;28;19931;-69
2022/09/17 09:33:52;;;;;;;;;;;;;;;29.59;40.42;98646.97;5062666;28;19908;-69
2022/09/17 09:36:20;;;;;;;;;;;;;;;29.44;41.35;98638.09;5063002;28;19909;-70
2022/09/17 09:39:00;;;;;;;;;;;;;;;29.60;40.96;98635.75;5062638;28;19975;-69
2022/09/17 09:41:58;;;;;;;;;;;;;;;29.72;39.26;98621.53;5062435;28;19979;-69
2022/09/17 09:44:24;;;;;;;;;;;;;;;29.70;40.11;98612.84;5039637;28;20194;-69
2022/09/17 09:46:49;;;;;;;;;;;;;;;29.31;39.96;98616.31;5062630;28;19908;-69
2022/09/17 09:49:23;;;;;;;;;;;;;;;29.14;40.74;98620.56;5062146;28;19980;-69
2022/09/17 09:52:07;;;;;;;;;;;;;;;28.99;39.84;98615.44;5062348;28;19980;-69
2022/09/17 09:54:51;;;;;;;;;;;;;;;28.85;40.12;98615.50;5062096;28;19925;-69
2022/09/17 09:57:20;;;;;;;;;;;;;;;28.87;41.11;98613.28;5062565;28;19913;-69
2022/09/17 09:59:46;;;;;;;;;;;;;;;28.91;41.45;98627.09;5062196;28;19916;-69
2022/09/17 10:02:11;;;;;;;;;;;;;;;29.01;40.61;98624.13;5062470;28;19916;-69
2022/09/17 10:04:37;;;;;;;;;;;;;;;29.10;41.17;98610.56;5062367;28;19984;-66
2022/09/17 10:07:07;;;;;;;;;;;;;;;29.27;39.80;98591.59;5062382;28;20076;-69
2022/09/17 10:09:34;;;;;;;;;;;;;;;29.19;40.34;98600.53;5057419;28;19966;-69
2022/09/17 10:12:14;;;;;;;;;;;;;;;29.15;39.82;98591.38;5081692;28;19923;-69
2022/09/17 10:14:41;;;;;;;;;;;;;;;29.30;39.26;98585.53;5080786;28;19962;-69
2022/09/17 10:17:23;;;;;;;;;;;;;;;29.29;39.19;98578.47;5081067;28;19912;-69
2022/09/17 10:20:00;;;;;;;;;;;;;;;29.44;38.98;98593.66;5079655;28;20136;-69
2022/09/17 10:22:33;;;;;;;;;;;;;;;29.69;38.36;98587.50;5068059;28;19913;-69
2022/09/17 10:24:59;;;;;;;;;;;;;;;29.53;38.66;98595.28;5064324;28;20094;-69
2022/09/17 10:27:25;;;;;;;;;;;;;;;29.56;38.65;98607.50;5064822;28;19973;-68
2022/09/17 10:30:02;;;;;;;;;;;;;;;29.35;40.04;98620.84;5064811;28;19917;-68
2022/09/17 10:32:28;;;;;;;;;;;;;;;28.98;50.07;98638.38;5063792;28;19991;-69
2022/09/17 10:35:03;;;;;;;;;;;;;;;28.80;60.77;98661.09;5065407;28;20198;-68
2022/09/17 10:37:41;;;;;;;;;;;;;;;28.21;65.72;98657.47;5063668;28;19912;-68
2022/09/17 10:40:18;;;;;;;;;;;;;;;28.37;63.38;98592.66;5065404;28;19924;-68
2022/09/17 10:42:44;;;;;;;;;;;;;;;28.28;63.42;98593.38;5063224;28;19912;-68
2022/09/17 10:45:22;;;;;;;;;;;;;;;27.23;71.94;98618.75;5067681;28;19987;-68
2022/09/17 10:47:49;;;;;;;;;;;;;;;26.79;76.08;98635.44;5064737;28;19913;-68
2022/09/17 10:50:18;;;;;;;;;;;;;;;26.58;73.16;98643.88;5068100;28;19917;-68
2022/09/17 10:53:05;;;;;;;;;;;;;;;26.63;77.30;98651.94;5067276;28;20125;-68
2022/09/17 10:55:37;;;;;;;;;;;;;;;26.54;71.46;98620.31;5066594;28;19916;-68
2022/09/17 10:58:06;;;;;;;;;;;;;;;26.59;75.14;98634.63;5068924;28;19913;-68
2022/09/17 11:00:40;;;;;;;;;;;;;;;26.51;79.11;98657.00;5069550;28;19938;-68
2022/09/17 11:03:08;;;;;;;;;;;;;;;26.57;81.11;98660.47;5051146;28;20006;-68
2022/09/17 11:05:52;;;;;;;;;;;;;;;26.50;79.60;98679.81;5066441;28;19961;-68
2022/09/17 11:08:29;;;;;;;;;;;;;;;26.35;79.71;98718.03;5064620;28;19913;-68
2022/09/17 11:11:17;;;;;;;;;;;;;;;26.44;80.87;98716.28;5066761;28;20049;-68
2022/09/17 11:14:03;;;;;;;;;;;;;;;26.42;78.89;98713.03;5047827;28;19940;-68
2022/09/17 11:16:34;;;;;;;;;;;;;;;26.19;81.04;98743.69;5080757;28;19916;-69
2022/09/17 11:19:18;;;;;;;;;;;;;;;26.32;80.41;98770.97;5081773;28;19912;-68
2022/09/17 11:21:49;;;;;;;;;;;;;;;26.11;81.16;98823.00;5081892;28;20164;-68
2022/09/17 11:24:24;;;;;;;;;;;;;;;25.86;85.57;98856.53;5082999;28;19923;-68
2022/09/17 11:27:08;;;;;;;;;;;;;;;25.07;86.08;98902.50;5081472;28;19919;-67
2022/09/17 11:29:42;;;;;;;;;;;;;;;24.01;91.83;98924.25;5081889;28;19924;-68
2022/09/17 11:32:08;;;;;;;;;;;;;;;23.61;97.14;98928.47;5081700;28;20011;-68
2022/09/17 11:34:52;;;;;;;;;;;;;;;23.13;100.00;98945.84;5062948;28;19916;-68
2022/09/17 11:37:26;;;;;;;;;;;;;;;22.75;100.00;98960.41;5079227;28;19924;-68
2022/09/17 11:40:05;;;;;;;;;;;;;;;22.58;100.00;98912.81;5080599;28;20259;-68
2022/09/17 11:42:36;;;;;;;;;;;;;;;22.55;100.00;98893.66;5042023;28;19967;-68
2022/09/17 11:45:13;;;;;;;;;;;;;;;22.66;100.00;98886.41;5040066;28;20207;-68
2022/09/17 11:47:46;;;;;;;;;;;;;;;22.74;100.00;98869.75;5041167;28;19913;-68
2022/09/17 11:50:18;;;;;;;;;;;;;;;22.75;100.00;98868.66;5041698;28;19991;-68
2022/09/17 11:52:46;;;;;;;;;;;;;;;23.01;100.00;98843.47;5041462;28;19967;-68
2022/09/17 11:55:24;;;;;;;;;;;;;;;22.97;100.00;98846.94;5041002;28;19928;-68
2022/09/17 11:57:52;;;;;;;;;;;;;;;23.18;100.00;98835.97;5041650;28;19980;-68
2022/09/17 12:00:19;;;;;;;;;;;;;;;23.23;99.26;98827.88;5040442;28;19955;-68
2022/09/17 12:02:50;;;;;;;;;;;;;;;23.31;99.13;98809.50;5041136;28;19912;-68
2022/09/17 12:05:17;;;;;;;;;;;;;;;23.41;95.90;98788.72;5041099;28;19924;-68
2022/09/17 12:07:52;;;;;;;;;;;;;;;23.98;91.20;98765.25;5040943;28;19974;-68
2022/09/17 12:10:17;;;;;;;;;;;;;;;24.01;88.61;98741.19;5041901;28;19924;-68
2022/09/17 12:12:48;;;;;;;;;;;;;;;24.19;86.79;98718.97;5039918;28;20115;-68
2022/09/17 12:15:18;;;;;;;;;;;;;;;24.34;85.64;98696.47;5040865;28;20261;-68
2022/09/17 12:17:52;;;;;;;;;;;;;;;24.33;82.72;98672.41;5040818;28;19913;-68
2022/09/17 12:20:27;;;;;;;;;;;;;;;24.28;84.23;98665.13;5040618;28;20106;-68
2022/09/17 12:22:53;;;;;;;;;;;;;;;24.30;83.22;98656.72;5040140;28;19921;-68
2022/09/17 12:25:18;;;;;;;;;;;;;;;24.24;87.32;98664.03;5040307;28;19928;-68
2022/09/17 12:27:53;;;;;;;;;;;;;;;24.49;84.56;98665.84;5039642;28;19940;-68
2022/09/17 12:30:27;;;;;;;;;;;;;;;24.46;86.79;98671.81;5040716;28;19995;-68
2022/09/17 12:32:56;;;;;;;;;;;;;;;24.77;81.84;98673.25;5039842;28;19919;-68
2022/09/17 12:35:30;;;;;;;;;;;;;;;24.72;84.43;98664.34;5040321;28;19925;-68
2022/09/17 12:37:58;;;;;;;;;;;;;;;24.68;85.17;98649.75;5039796;28;19920;-68
2022/09/17 12:40:37;;;;;;;;;;;;;;;24.97;82.43;98649.81;5049666;28;19924;-68
2022/09/17 12:43:09;;;;;;;;;;;;;;;24.92;80.41;98656.09;5078889;28;20122;-68
2022/09/17 12:45:34;;;;;;;;;;;;;;;24.87;78.23;98649.91;5081480;28;19931;-68
2022/09/17 12:48:05;;;;;;;;;;;;;;;24.95;77.58;98650.09;5080693;28;19912;-68
2022/09/17 12:51:06;;;;;;;;;;;;;;;24.94;79.09;98637.66;5078603;28;19990;-68
2022/09/17 12:53:54;;;;;;;;;;;;;;;24.85;76.42;98620.41;5021609;28;19921;-68
2022/09/17 12:56:23;;;;;;;;;;;;;;;24.87;78.63;98606.56;5076298;28;20251;-68